sensor_id;sensor_type;location;lat;lon;timestamp;temperature;humidity
32640;DHT22;19049;52.524;11.468;2023-09-18T00:00:49;18.80;99.90
32640;DHT22;19049;52.524;11.468;2023-09-18T00:03:16;18.80;99.00
32640;DHT22;19049;52.524;11.468;2023-09-18T00:05:45;18.30;97.50
32640;DHT22;19049;52.524;11.468;2023-09-18T00:10:37;18.10;99.30
32640;DHT22;19049;52.524;11.468;2023-09-18T00:13:02;18.80;99.00
32640;DHT22;19049;52.524;11.468;2023-09-18T00:15:30;18.80;98.50
32640;DHT22;19049;52.524;11.468;2023-09-18T00:17:56;17.70;99.90
32640;DHT22;19049;52.524;11.468;2023-09-18T00:20:22;18.50;99.90
32640;DHT22;19049;52.524;11.468;2023-09-18T00:22:53;18.40;99.90
32640;DHT22;19049;52.524;11.468;2023-09-18T00:27:45;18.20;99.90
32640;DHT22;19049;52.524;11.468;2023-09-18T00:30:10;17.80;98.30
32640;DHT22;19049;52.524;11.468;2023-09-18T00:32:37;18.10;99.90
32640;DHT22;19049;52.524;11.468;2023-09-18T00:35:02;18.00;99.90
32640;DHT22;19049;52.524;11.468;2023-09-18T00:42:20;18.30;99.90
32640;DHT22;19049;52.524;11.468;2023-09-18T00:44:48;18.10;97.90
32640;DHT22;19049;52.524;11.468;2023-09-18T00:47:14;18.30;99.90
32640;DHT22;19049;52.524;11.468;2023-09-18T00:49:42;18.80;99.90
32640;DHT22;19049;52.524;11.468;2023-09-18T00:52:09;18.20;99.90
32640;DHT22;19049;52.524;11.468;2023-09-18T00:54:37;18.00;99.90
32640;DHT22;19049;52.524;11.468;2023-09-18T00:57:04;18.10;98.30
32640;DHT22;19049;52.524;11.468;2023-09-18T00:59:30;18.30;99.90
32640;DHT22;19049;52.524;11.468;2023-09-18T01:01:56;18.20;99.90
32640;DHT22;19049;52.524;11.468;2023-09-18T01:04:22;18.20;98.60
32640;DHT22;19049;52.524;11.468;2023-09-18T01:06:51;18.20;99.90
32640;DHT22;19049;52.524;11.468;2023-09-18T01:09:18;18.30;98.80
32640;DHT22;19049;52.524;11.468;2023-09-18T01:14:29;18.40;98.80
32640;DHT22;19049;52.524;11.468;2023-09-18T01:16:58;18.50;98.70
32640;DHT22;19049;52.524;11.468;2023-09-18T01:22:07;18.60;98.70
32640;DHT22;19049;52.524;11.468;2023-09-18T01:24:37;18.60;98.80
32640;DHT22;19049;52.524;11.468;2023-09-18T01:27:05;18.70;98.60
32640;DHT22;19049;52.524;11.468;2023-09-18T01:29:31;18.70;98.50
32640;DHT22;19049;52.524;11.468;2023-09-18T01:34:33;18.10;99.90
32640;DHT22;19049;52.524;11.468;2023-09-18T01:37:05;18.70;99.90
32640;DHT22;19049;52.524;11.468;2023-09-18T01:39:34;18.30;99.90
32640;DHT22;19049;52.524;11.468;2023-09-18T01:42:04;19.20;99.90
32640;DHT22;19049;52.524;11.468;2023-09-18T01:44:31;18.90;99.90
32640;DHT22;19049;52.524;11.468;2023-09-18T01:46:59;18.40;99.90
32640;DHT22;19049;52.524;11.468;2023-09-18T01:49:31;19.30;99.90
32640;DHT22;19049;52.524;11.468;2023-09-18T01:51:57;18.70;99.90
32640;DHT22;19049;52.524;11.468;2023-09-18T01:54:23;19.10;99.90
32640;DHT22;19049;52.524;11.468;2023-09-18T01:59:17;18.40;98.90
32640;DHT22;19049;52.524;11.468;2023-09-18T02:01:43;19.10;99.90
32640;DHT22;19049;52.524;11.468;2023-09-18T02:04:09;18.60;99.90
32640;DHT22;19049;52.524;11.468;2023-09-18T02:06:35;18.90;99.90
32640;DHT22;19049;52.524;11.468;2023-09-18T02:09:01;18.30;99.90
32640;DHT22;19049;52.524;11.468;2023-09-18T02:13:55;18.70;99.90
32640;DHT22;19049;52.524;11.468;2023-09-18T02:18:48;18.80;99.90
32640;DHT22;19049;52.524;11.468;2023-09-18T02:21:20;19.20;98.00
32640;DHT22;19049;52.524;11.468;2023-09-18T02:23:49;19.20;98.00
32640;DHT22;19049;52.524;11.468;2023-09-18T02:26:15;18.90;99.90
32640;DHT22;19049;52.524;11.468;2023-09-18T02:31:07;19.60;99.90
32640;DHT22;19049;52.524;11.468;2023-09-18T02:33:33;19.10;99.90
32640;DHT22;19049;52.524;11.468;2023-09-18T02:35:59;19.80;99.90
32640;DHT22;19049;52.524;11.468;2023-09-18T02:38:27;19.80;99.90
32640;DHT22;19049;52.524;11.468;2023-09-18T02:40:53;19.60;99.90
32640;DHT22;19049;52.524;11.468;2023-09-18T02:48:11;18.90;99.90
32640;DHT22;19049;52.524;11.468;2023-09-18T02:53:06;19.80;98.20
32640;DHT22;19049;52.524;11.468;2023-09-18T02:55:32;19.70;99.90
32640;DHT22;19049;52.524;11.468;2023-09-18T02:57:58;19.00;99.90
32640;DHT22;19049;52.524;11.468;2023-09-18T03:00:24;18.90;99.90
32640;DHT22;19049;52.524;11.468;2023-09-18T03:07:42;19.30;99.90
32640;DHT22;19049;52.524;11.468;2023-09-18T03:10:08;20.10;99.90
32640;DHT22;19049;52.524;11.468;2023-09-18T03:12:34;18.60;99.90
32640;DHT22;19049;52.524;11.468;2023-09-18T03:15:00;18.80;99.90
32640;DHT22;19049;52.524;11.468;2023-09-18T03:19:52;18.70;99.90
32640;DHT22;19049;52.524;11.468;2023-09-18T03:24:43;19.90;99.90
32640;DHT22;19049;52.524;11.468;2023-09-18T03:27:09;19.10;99.90
32640;DHT22;19049;52.524;11.468;2023-09-18T03:29:35;19.70;99.90
32640;DHT22;19049;52.524;11.468;2023-09-18T03:34:26;19.50;99.90
32640;DHT22;19049;52.524;11.468;2023-09-18T03:41:45;19.80;99.90
32640;DHT22;19049;52.524;11.468;2023-09-18T03:44:11;19.80;99.90
32640;DHT22;19049;52.524;11.468;2023-09-18T03:53:55;19.20;98.10
32640;DHT22;19049;52.524;11.468;2023-09-18T03:56:22;18.90;99.90
32640;DHT22;19049;52.524;11.468;2023-09-18T03:58:48;19.00;99.90
32640;DHT22;19049;52.524;11.468;2023-09-18T04:01:15;19.30;98.10
32640;DHT22;19049;52.524;11.468;2023-09-18T04:10:59;19.10;99.90
32640;DHT22;19049;52.524;11.468;2023-09-18T04:15:51;18.90;99.90
32640;DHT22;19049;52.524;11.468;2023-09-18T04:20:48;19.10;99.90
32640;DHT22;19049;52.524;11.468;2023-09-18T04:28:17;19.20;98.20
32640;DHT22;19049;52.524;11.468;2023-09-18T04:35:38;18.90;99.90
32640;DHT22;19049;52.524;11.468;2023-09-18T04:38:06;19.00;99.90
32640;DHT22;19049;52.524;11.468;2023-09-18T04:43:01;18.60;99.90
32640;DHT22;19049;52.524;11.468;2023-09-18T04:47:53;19.80;99.90
32640;DHT22;19049;52.524;11.468;2023-09-18T04:50:20;19.40;99.90
32640;DHT22;19049;52.524;11.468;2023-09-18T04:52:45;18.90;99.90
32640;DHT22;19049;52.524;11.468;2023-09-18T04:55:11;19.30;99.90
32640;DHT22;19049;52.524;11.468;2023-09-18T04:57:37;19.10;98.20
32640;DHT22;19049;52.524;11.468;2023-09-18T05:00:03;19.50;99.90
32640;DHT22;19049;52.524;11.468;2023-09-18T05:02:38;18.50;99.90
32640;DHT22;19049;52.524;11.468;2023-09-18T05:05:04;19.00;98.30
32640;DHT22;19049;52.524;11.468;2023-09-18T05:07:30;19.30;99.90
32640;DHT22;19049;52.524;11.468;2023-09-18T05:14:49;18.90;99.90
32640;DHT22;19049;52.524;11.468;2023-09-18T05:17:16;18.40;99.90
32640;DHT22;19049;52.524;11.468;2023-09-18T05:19:43;19.00;98.60
32640;DHT22;19049;52.524;11.468;2023-09-18T05:22:09;19.00;98.70
32640;DHT22;19049;52.524;11.468;2023-09-18T05:24:38;19.50;99.90
32640;DHT22;19049;52.524;11.468;2023-09-18T05:27:04;18.70;99.90
32640;DHT22;19049;52.524;11.468;2023-09-18T05:29:33;19.10;98.70
32640;DHT22;19049;52.524;11.468;2023-09-18T05:34:27;19.20;99.90
32640;DHT22;19049;52.524;11.468;2023-09-18T05:36:52;19.70;99.90
32640;DHT22;19049;52.524;11.468;2023-09-18T05:46:37;20.10;99.90
32640;DHT22;19049;52.524;11.468;2023-09-18T05:51:30;19.80;98.90
32640;DHT22;19049;52.524;11.468;2023-09-18T06:11:00;22.20;99.90
32640;DHT22;19049;52.524;11.468;2023-09-18T06:15:53;22.10;98.20
32640;DHT22;19049;52.524;11.468;2023-09-18T06:20:46;22.60;97.80
32640;DHT22;19049;52.524;11.468;2023-09-18T06:25:39;23.00;97.00
32640;DHT22;19049;52.524;11.468;2023-09-18T06:33:00;23.40;95.50
32640;DHT22;19049;52.524;11.468;2023-09-18T07:07:15;25.80;94.20
32640;DHT22;19049;52.524;11.468;2023-09-18T07:09:43;26.00;94.10
32640;DHT22;19049;52.524;11.468;2023-09-18T07:14:36;26.40;99.20
32640;DHT22;19049;52.524;11.468;2023-09-18T07:24:21;26.70;99.90
32640;DHT22;19049;52.524;11.468;2023-09-18T07:26:47;27.30;92.20
32640;DHT22;19049;52.524;11.468;2023-09-18T07:29:14;27.40;91.30
32640;DHT22;19049;52.524;11.468;2023-09-18T07:31:43;27.50;91.20
32640;DHT22;19049;52.524;11.468;2023-09-18T07:34:10;27.70;95.40
32640;DHT22;19049;52.524;11.468;2023-09-18T07:36:37;28.00;97.90
32640;DHT22;19049;52.524;11.468;2023-09-18T07:39:03;27.40;89.90
32640;DHT22;19049;52.524;11.468;2023-09-18T07:41:30;27.40;90.20
32640;DHT22;19049;52.524;11.468;2023-09-18T07:51:16;27.30;92.00
32640;DHT22;19049;52.524;11.468;2023-09-18T07:53:42;26.70;91.60
32640;DHT22;19049;52.524;11.468;2023-09-18T07:56:08;26.50;95.90
32640;DHT22;19049;52.524;11.468;2023-09-18T08:01:04;27.80;95.60
32640;DHT22;19049;52.524;11.468;2023-09-18T08:06:01;26.70;95.50
32640;DHT22;19049;52.524;11.468;2023-09-18T08:15:45;26.50;89.00
32640;DHT22;19049;52.524;11.468;2023-09-18T08:20:45;26.40;89.10
32640;DHT22;19049;52.524;11.468;2023-09-18T08:25:37;26.30;96.50
32640;DHT22;19049;52.524;11.468;2023-09-18T08:28:04;26.30;95.90
32640;DHT22;19049;52.524;11.468;2023-09-18T08:42:46;25.60;88.80
32640;DHT22;19049;52.524;11.468;2023-09-18T08:45:46;25.50;89.40
32640;DHT22;19049;52.524;11.468;2023-09-18T08:50:36;25.50;90.20
32640;DHT22;19049;52.524;11.468;2023-09-18T08:53:03;25.50;89.80
32640;DHT22;19049;52.524;11.468;2023-09-18T09:12:48;25.50;89.20
32640;DHT22;19049;52.524;11.468;2023-09-18T09:17:42;25.40;90.10
32640;DHT22;19049;52.524;11.468;2023-09-18T09:20:15;25.40;90.20
32640;DHT22;19049;52.524;11.468;2023-09-18T09:22:41;25.40;90.50
32640;DHT22;19049;52.524;11.468;2023-09-18T09:25:28;25.50;91.10
32640;DHT22;19049;52.524;11.468;2023-09-18T09:30:25;25.80;91.10
32640;DHT22;19049;52.524;11.468;2023-09-18T09:32:52;25.90;90.80
32640;DHT22;19049;52.524;11.468;2023-09-18T09:35:25;26.00;90.60
32640;DHT22;19049;52.524;11.468;2023-09-18T09:37:57;26.00;90.30
32640;DHT22;19049;52.524;11.468;2023-09-18T09:40:24;26.10;90.20
32640;DHT22;19049;52.524;11.468;2023-09-18T09:42:54;26.00;90.20
32640;DHT22;19049;52.524;11.468;2023-09-18T09:45:27;24.70;89.20
32640;DHT22;19049;52.524;11.468;2023-09-18T09:47:55;26.00;89.90
32640;DHT22;19049;52.524;11.468;2023-09-18T09:52:48;26.00;89.70
32640;DHT22;19049;52.524;11.468;2023-09-18T09:55:29;26.00;90.10
32640;DHT22;19049;52.524;11.468;2023-09-18T09:58:06;26.00;89.80
32640;DHT22;19049;52.524;11.468;2023-09-18T10:00:33;25.40;90.30
32640;DHT22;19049;52.524;11.468;2023-09-18T10:03:12;26.00;90.10
32640;DHT22;19049;52.524;11.468;2023-09-18T10:05:40;26.20;92.10
32640;DHT22;19049;52.524;11.468;2023-09-18T10:08:16;26.00;97.40
32640;DHT22;19049;52.524;11.468;2023-09-18T10:10:47;26.00;98.30
32640;DHT22;19049;52.524;11.468;2023-09-18T10:13:20;26.30;98.10
32640;DHT22;19049;52.524;11.468;2023-09-18T10:15:51;25.70;98.00
32640;DHT22;19049;52.524;11.468;2023-09-18T10:20:44;27.00;96.20
32640;DHT22;19049;52.524;11.468;2023-09-18T10:23:25;26.90;98.00
32640;DHT22;19049;52.524;11.468;2023-09-18T10:25:58;26.90;93.00
32640;DHT22;19049;52.524;11.468;2023-09-18T10:28:25;26.30;94.00
32640;DHT22;19049;52.524;11.468;2023-09-18T10:30:56;27.70;98.60
32640;DHT22;19049;52.524;11.468;2023-09-18T10:35:48;27.40;98.80
32640;DHT22;19049;52.524;11.468;2023-09-18T10:38:15;27.30;90.70
32640;DHT22;19049;52.524;11.468;2023-09-18T10:40:43;27.90;97.80
32640;DHT22;19049;52.524;11.468;2023-09-18T10:43:11;27.10;97.70
32640;DHT22;19049;52.524;11.468;2023-09-18T10:45:37;27.00;96.70
32640;DHT22;19049;52.524;11.468;2023-09-18T10:48:05;27.60;89.40
32640;DHT22;19049;52.524;11.468;2023-09-18T10:50:34;27.70;89.60
32640;DHT22;19049;52.524;11.468;2023-09-18T10:57:54;27.90;88.80
32640;DHT22;19049;52.524;11.468;2023-09-18T11:00:28;28.30;94.20
32640;DHT22;19049;52.524;11.468;2023-09-18T11:03:14;28.30;97.50
32640;DHT22;19049;52.524;11.468;2023-09-18T11:05:44;28.80;97.50
32640;DHT22;19049;52.524;11.468;2023-09-18T11:08:51;29.10;96.70
32640;DHT22;19049;52.524;11.468;2023-09-18T11:11:19;28.60;87.30
32640;DHT22;19049;52.524;11.468;2023-09-18T11:13:52;28.60;86.50
32640;DHT22;19049;52.524;11.468;2023-09-18T11:26:31;28.00;96.00
32640;DHT22;19049;52.524;11.468;2023-09-18T11:29:07;28.10;95.80
32640;DHT22;19049;52.524;11.468;2023-09-18T11:32:01;28.70;85.80
32640;DHT22;19049;52.524;11.468;2023-09-18T11:34:30;28.60;86.20
32640;DHT22;19049;52.524;11.468;2023-09-18T11:39:40;28.50;86.10
32640;DHT22;19049;52.524;11.468;2023-09-18T11:42:13;28.00;95.40
32640;DHT22;19049;52.524;11.468;2023-09-18T11:44:42;28.00;90.80
32640;DHT22;19049;52.524;11.468;2023-09-18T11:47:12;29.10;96.50
32640;DHT22;19049;52.524;11.468;2023-09-18T11:52:28;27.90;89.10
32640;DHT22;19049;52.524;11.468;2023-09-18T11:54:57;28.20;86.20
32640;DHT22;19049;52.524;11.468;2023-09-18T12:02:37;28.00;87.40
32640;DHT22;19049;52.524;11.468;2023-09-18T12:05:16;28.00;87.80
32640;DHT22;19049;52.524;11.468;2023-09-18T12:07:44;28.00;88.10
32640;DHT22;19049;52.524;11.468;2023-09-18T12:10:15;27.90;87.60
32640;DHT22;19049;52.524;11.468;2023-09-18T12:12:43;28.00;87.40
32640;DHT22;19049;52.524;11.468;2023-09-18T12:15:12;28.00;88.00
32640;DHT22;19049;52.524;11.468;2023-09-18T12:25:14;28.80;88.90
32640;DHT22;19049;52.524;11.468;2023-09-18T12:27:41;28.60;97.40
32640;DHT22;19049;52.524;11.468;2023-09-18T12:30:08;28.90;95.80
32640;DHT22;19049;52.524;11.468;2023-09-18T12:32:38;29.80;85.80
32640;DHT22;19049;52.524;11.468;2023-09-18T12:35:05;30.10;85.20
32640;DHT22;19049;52.524;11.468;2023-09-18T12:37:39;30.00;96.30
32640;DHT22;19049;52.524;11.468;2023-09-18T12:40:06;30.30;84.70
32640;DHT22;19049;52.524;11.468;2023-09-18T12:42:38;30.60;82.40
32640;DHT22;19049;52.524;11.468;2023-09-18T12:45:07;30.70;80.70
32640;DHT22;19049;52.524;11.468;2023-09-18T12:47:33;30.80;79.70
32640;DHT22;19049;52.524;11.468;2023-09-18T12:50:03;30.70;79.80
32640;DHT22;19049;52.524;11.468;2023-09-18T12:52:30;30.60;77.60
32640;DHT22;19049;52.524;11.468;2023-09-18T12:54:57;30.40;79.50
32640;DHT22;19049;52.524;11.468;2023-09-18T12:57:25;30.20;79.10
32640;DHT22;19049;52.524;11.468;2023-09-18T12:59:51;30.00;79.60
32640;DHT22;19049;52.524;11.468;2023-09-18T13:02:18;29.80;80.40
32640;DHT22;19049;52.524;11.468;2023-09-18T13:04:55;29.70;79.40
32640;DHT22;19049;52.524;11.468;2023-09-18T13:07:22;28.70;92.80
32640;DHT22;19049;52.524;11.468;2023-09-18T13:10:02;29.20;80.20
32640;DHT22;19049;52.524;11.468;2023-09-18T13:15:07;29.10;79.80
32640;DHT22;19049;52.524;11.468;2023-09-18T13:17:46;29.00;80.20
32640;DHT22;19049;52.524;11.468;2023-09-18T13:20:14;29.30;92.80
32640;DHT22;19049;52.524;11.468;2023-09-18T13:22:41;28.40;92.30
32640;DHT22;19049;52.524;11.468;2023-09-18T13:25:09;28.70;80.60
32640;DHT22;19049;52.524;11.468;2023-09-18T13:32:33;27.80;91.80
32640;DHT22;19049;52.524;11.468;2023-09-18T13:34:59;28.00;92.20
32640;DHT22;19049;52.524;11.468;2023-09-18T13:37:25;28.10;92.20
32640;DHT22;19049;52.524;11.468;2023-09-18T13:44:44;27.60;92.20
32640;DHT22;19049;52.524;11.468;2023-09-18T13:47:12;27.60;92.20
32640;DHT22;19049;52.524;11.468;2023-09-18T13:49:38;28.20;92.90
32640;DHT22;19049;52.524;11.468;2023-09-18T13:52:04;27.70;92.50
32640;DHT22;19049;52.524;11.468;2023-09-18T13:54:30;27.60;92.30
32640;DHT22;19049;52.524;11.468;2023-09-18T13:56:56;27.70;92.30
32640;DHT22;19049;52.524;11.468;2023-09-18T14:04:14;26.70;92.90
32640;DHT22;19049;52.524;11.468;2023-09-18T14:11:35;26.90;92.90
32640;DHT22;19049;52.524;11.468;2023-09-18T14:23:55;26.70;87.60
32640;DHT22;19049;52.524;11.468;2023-09-18T14:33:39;27.10;90.80
32640;DHT22;19049;52.524;11.468;2023-09-18T14:38:32;26.50;94.00
32640;DHT22;19049;52.524;11.468;2023-09-18T14:40:57;26.60;92.70
32640;DHT22;19049;52.524;11.468;2023-09-18T14:43:28;28.30;96.10
32640;DHT22;19049;52.524;11.468;2023-09-18T14:48:22;28.00;85.80
32640;DHT22;19049;52.524;11.468;2023-09-18T14:50:54;28.40;82.80
32640;DHT22;19049;52.524;11.468;2023-09-18T14:55:46;28.50;88.00
32640;DHT22;19049;52.524;11.468;2023-09-18T14:58:12;29.00;85.90
32640;DHT22;19049;52.524;11.468;2023-09-18T15:07:56;27.80;90.90
32640;DHT22;19049;52.524;11.468;2023-09-18T15:15:14;28.00;78.20
32640;DHT22;19049;52.524;11.468;2023-09-18T15:17:39;28.10;88.20
32640;DHT22;19049;52.524;11.468;2023-09-18T15:20:06;27.80;92.10
32640;DHT22;19049;52.524;11.468;2023-09-18T15:22:31;26.60;91.90
32640;DHT22;19049;52.524;11.468;2023-09-18T15:29:49;26.80;92.50
32640;DHT22;19049;52.524;11.468;2023-09-18T15:32:15;27.10;92.50
32640;DHT22;19049;52.524;11.468;2023-09-18T15:34:40;26.20;92.50
32640;DHT22;19049;52.524;11.468;2023-09-18T15:37:06;26.70;90.70
32640;DHT22;19049;52.524;11.468;2023-09-18T15:39:32;25.80;93.00
32640;DHT22;19049;52.524;11.468;2023-09-18T15:54:11;25.90;93.40
32640;DHT22;19049;52.524;11.468;2023-09-18T15:56:37;25.40;94.80
32640;DHT22;19049;52.524;11.468;2023-09-18T16:01:30;26.40;96.00
32640;DHT22;19049;52.524;11.468;2023-09-18T16:21:03;25.80;95.20
32640;DHT22;19049;52.524;11.468;2023-09-18T16:23:28;24.90;94.70
32640;DHT22;19049;52.524;11.468;2023-09-18T16:25:54;25.90;95.00
32640;DHT22;19049;52.524;11.468;2023-09-18T16:28:20;25.70;92.20
32640;DHT22;19049;52.524;11.468;2023-09-18T16:47:47;24.80;85.70
32640;DHT22;19049;52.524;11.468;2023-09-18T16:50:13;24.70;86.80
32640;DHT22;19049;52.524;11.468;2023-09-18T16:52:39;24.50;96.90
32640;DHT22;19049;52.524;11.468;2023-09-18T16:55:09;25.20;96.60
32640;DHT22;19049;52.524;11.468;2023-09-18T16:57:34;24.50;87.30
32640;DHT22;19049;52.524;11.468;2023-09-18T17:00:00;24.50;87.20
32640;DHT22;19049;52.524;11.468;2023-09-18T17:09:44;24.70;95.80
32640;DHT22;19049;52.524;11.468;2023-09-18T17:19:28;24.20;96.50
32640;DHT22;19049;52.524;11.468;2023-09-18T17:21:53;23.50;96.90
32640;DHT22;19049;52.524;11.468;2023-09-18T17:24:20;24.00;88.50
32640;DHT22;19049;52.524;11.468;2023-09-18T17:26:47;24.00;88.70
32640;DHT22;19049;52.524;11.468;2023-09-18T17:53:33;22.70;90.20
32640;DHT22;19049;52.524;11.468;2023-09-18T17:55:59;22.60;90.70
32640;DHT22;19049;52.524;11.468;2023-09-18T17:58:24;22.50;90.90
32640;DHT22;19049;52.524;11.468;2023-09-18T18:00:53;22.40;91.00
32640;DHT22;19049;52.524;11.468;2023-09-18T18:03:19;22.30;91.30
32640;DHT22;19049;52.524;11.468;2023-09-18T18:05:46;22.20;91.40
32640;DHT22;19049;52.524;11.468;2023-09-18T18:08:14;22.20;91.50
32640;DHT22;19049;52.524;11.468;2023-09-18T18:10:43;22.10;91.60
32640;DHT22;19049;52.524;11.468;2023-09-18T18:13:09;22.10;91.80
32640;DHT22;19049;52.524;11.468;2023-09-18T18:15:36;22.00;91.80
32640;DHT22;19049;52.524;11.468;2023-09-18T18:18:03;22.00;92.00
32640;DHT22;19049;52.524;11.468;2023-09-18T18:20:29;21.90;92.10
32640;DHT22;19049;52.524;11.468;2023-09-18T18:22:54;21.80;92.10
32640;DHT22;19049;52.524;11.468;2023-09-18T18:27:48;21.10;99.00
32640;DHT22;19049;52.524;11.468;2023-09-18T18:52:12;21.80;98.00
32640;DHT22;19049;52.524;11.468;2023-09-18T18:54:38;22.20;99.90
32640;DHT22;19049;52.524;11.468;2023-09-18T18:57:04;21.60;96.00
32640;DHT22;19049;52.524;11.468;2023-09-18T18:59:30;21.40;95.70
32640;DHT22;19049;52.524;11.468;2023-09-18T19:04:22;21.40;99.90
32640;DHT22;19049;52.524;11.468;2023-09-18T19:14:06;21.00;97.50
32640;DHT22;19049;52.524;11.468;2023-09-18T19:16:31;20.70;99.90
32640;DHT22;19049;52.524;11.468;2023-09-18T19:18:57;21.10;98.50
32640;DHT22;19049;52.524;11.468;2023-09-18T19:28:44;21.70;99.90
32640;DHT22;19049;52.524;11.468;2023-09-18T19:36:08;21.20;94.10
32640;DHT22;19049;52.524;11.468;2023-09-18T19:41:04;22.00;99.90
32640;DHT22;19049;52.524;11.468;2023-09-18T19:43:30;22.00;97.80
32640;DHT22;19049;52.524;11.468;2023-09-18T19:45:56;20.80;99.90
32640;DHT22;19049;52.524;11.468;2023-09-18T19:50:48;21.80;99.90
32640;DHT22;19049;52.524;11.468;2023-09-18T19:55:42;21.10;95.50
32640;DHT22;19049;52.524;11.468;2023-09-18T19:58:07;20.90;99.90
32640;DHT22;19049;52.524;11.468;2023-09-18T20:06:06;20.60;99.90
32640;DHT22;19049;52.524;11.468;2023-09-18T20:08:32;21.40;99.00
32640;DHT22;19049;52.524;11.468;2023-09-18T20:10:57;20.80;99.90
32640;DHT22;19049;52.524;11.468;2023-09-18T20:13:24;21.30;99.90
32640;DHT22;19049;52.524;11.468;2023-09-18T20:15:51;21.70;99.90
32640;DHT22;19049;52.524;11.468;2023-09-18T20:23:09;21.70;96.80
32640;DHT22;19049;52.524;11.468;2023-09-18T20:25:35;21.10;94.80
32640;DHT22;19049;52.524;11.468;2023-09-18T20:30:28;21.50;99.90
32640;DHT22;19049;52.524;11.468;2023-09-18T20:32:54;21.20;99.90
32640;DHT22;19049;52.524;11.468;2023-09-18T20:37:48;20.40;99.90
32640;DHT22;19049;52.524;11.468;2023-09-18T20:40:13;21.50;99.90
32640;DHT22;19049;52.524;11.468;2023-09-18T20:45:06;21.00;99.90
32640;DHT22;19049;52.524;11.468;2023-09-18T20:47:32;20.20;99.90
32640;DHT22;19049;52.524;11.468;2023-09-18T20:49:58;21.20;99.90
32640;DHT22;19049;52.524;11.468;2023-09-18T20:52:23;20.50;99.90
32640;DHT22;19049;52.524;11.468;2023-09-18T20:54:52;20.80;95.40
32640;DHT22;19049;52.524;11.468;2023-09-18T20:57:18;20.30;99.90
32640;DHT22;19049;52.524;11.468;2023-09-18T20:59:44;20.70;99.90
32640;DHT22;19049;52.524;11.468;2023-09-18T21:04:38;21.30;99.90
32640;DHT22;19049;52.524;11.468;2023-09-18T21:07:04;20.30;99.90
32640;DHT22;19049;52.524;11.468;2023-09-18T21:09:30;20.10;99.90
32640;DHT22;19049;52.524;11.468;2023-09-18T21:11:57;21.00;98.50
32640;DHT22;19049;52.524;11.468;2023-09-18T21:14:22;20.30;99.90
32640;DHT22;19049;52.524;11.468;2023-09-18T21:16:48;20.40;99.90
32640;DHT22;19049;52.524;11.468;2023-09-18T21:24:06;20.40;96.00
32640;DHT22;19049;52.524;11.468;2023-09-18T21:31:24;20.10;99.90
32640;DHT22;19049;52.524;11.468;2023-09-18T21:33:50;20.30;99.10
32640;DHT22;19049;52.524;11.468;2023-09-18T21:36:18;20.80;99.90
32640;DHT22;19049;52.524;11.468;2023-09-18T21:38:48;21.20;99.90
32640;DHT22;19049;52.524;11.468;2023-09-18T21:41:20;21.20;99.90
32640;DHT22;19049;52.524;11.468;2023-09-18T21:43:46;21.00;99.90
32640;DHT22;19049;52.524;11.468;2023-09-18T21:46:12;21.20;99.90
32640;DHT22;19049;52.524;11.468;2023-09-18T21:48:38;20.50;99.90
32640;DHT22;19049;52.524;11.468;2023-09-18T21:51:04;20.70;99.90
32640;DHT22;19049;52.524;11.468;2023-09-18T21:53:30;21.20;99.90
32640;DHT22;19049;52.524;11.468;2023-09-18T21:56:00;20.60;96.20
32640;DHT22;19049;52.524;11.468;2023-09-18T21:58:25;20.40;99.90
32640;DHT22;19049;52.524;11.468;2023-09-18T22:00:57;20.20;96.40
32640;DHT22;19049;52.524;11.468;2023-09-18T22:05:49;20.00;97.70
32640;DHT22;19049;52.524;11.468;2023-09-18T22:08:14;20.00;99.90
32640;DHT22;19049;52.524;11.468;2023-09-18T22:13:06;20.10;99.90
32640;DHT22;19049;52.524;11.468;2023-09-18T22:15:32;20.10;99.90
32640;DHT22;19049;52.524;11.468;2023-09-18T22:17:57;20.10;99.90
32640;DHT22;19049;52.524;11.468;2023-09-18T22:20:23;20.40;99.90
32640;DHT22;19049;52.524;11.468;2023-09-18T22:22:49;20.40;99.90
32640;DHT22;19049;52.524;11.468;2023-09-18T22:25:14;20.20;96.70
32640;DHT22;19049;52.524;11.468;2023-09-18T22:27:41;20.30;97.00
32640;DHT22;19049;52.524;11.468;2023-09-18T22:30:07;20.20;97.10
32640;DHT22;19049;52.524;11.468;2023-09-18T22:32:35;20.20;97.40
32640;DHT22;19049;52.524;11.468;2023-09-18T22:35:04;20.20;97.40
32640;DHT22;19049;52.524;11.468;2023-09-18T22:37:30;20.20;97.50
32640;DHT22;19049;52.524;11.468;2023-09-18T22:54:54;20.20;97.60
32640;DHT22;19049;52.524;11.468;2023-09-18T22:57:21;20.30;97.60
32640;DHT22;19049;52.524;11.468;2023-09-18T22:59:49;20.30;97.60
32640;DHT22;19049;52.524;11.468;2023-09-18T23:02:18;20.30;97.70
32640;DHT22;19049;52.524;11.468;2023-09-18T23:04:45;20.40;98.00
32640;DHT22;19049;52.524;11.468;2023-09-18T23:07:12;20.40;97.80
32640;DHT22;19049;52.524;11.468;2023-09-18T23:09:41;20.50;98.00
32640;DHT22;19049;52.524;11.468;2023-09-18T23:12:11;20.50;98.10
32640;DHT22;19049;52.524;11.468;2023-09-18T23:14:40;20.60;98.10
32640;DHT22;19049;52.524;11.468;2023-09-18T23:17:07;20.60;97.90
32640;DHT22;19049;52.524;11.468;2023-09-18T23:19:35;20.70;97.60
32640;DHT22;19049;52.524;11.468;2023-09-18T23:22:02;20.80;97.30
32640;DHT22;19049;52.524;11.468;2023-09-18T23:24:29;20.80;96.30
32640;DHT22;19049;52.524;11.468;2023-09-18T23:26:57;20.80;95.80
32640;DHT22;19049;52.524;11.468;2023-09-18T23:29:23;20.90;95.60
32640;DHT22;19049;52.524;11.468;2023-09-18T23:31:51;20.90;95.60
32640;DHT22;19049;52.524;11.468;2023-09-18T23:34:17;20.90;94.70
32640;DHT22;19049;52.524;11.468;2023-09-18T23:36:42;20.90;94.70
32640;DHT22;19049;52.524;11.468;2023-09-18T23:39:08;20.90;94.20
32640;DHT22;19049;52.524;11.468;2023-09-18T23:41:35;20.80;93.70
32640;DHT22;19049;52.524;11.468;2023-09-18T23:44:00;20.70;93.70
32640;DHT22;19049;52.524;11.468;2023-09-18T23:46:26;21.20;99.90
32640;DHT22;19049;52.524;11.468;2023-09-18T23:51:19;20.20;99.90
32640;DHT22;19049;52.524;11.468;2023-09-18T23:53:46;20.10;99.90
32640;DHT22;19049;52.524;11.468;2023-09-18T23:56:11;19.90;99.90
32640;DHT22;19049;52.524;11.468;2023-09-18T23:58:42;20.10;94.50
